sensor_id;sensor_type;location;lat;lon;timestamp;temperature;humidity
32348;DHT22;18821;44.800;10.326;2024-03-08T00:02:14;8.40;99.90
32348;DHT22;18821;44.800;10.326;2024-03-08T00:04:40;8.40;99.90
32348;DHT22;18821;44.800;10.326;2024-03-08T00:07:06;8.40;99.90
32348;DHT22;18821;44.800;10.326;2024-03-08T00:09:33;8.50;99.90
32348;DHT22;18821;44.800;10.326;2024-03-08T00:11:58;8.50;99.90
32348;DHT22;18821;44.800;10.326;2024-03-08T00:14:25;8.60;99.90
32348;DHT22;18821;44.800;10.326;2024-03-08T00:16:51;8.60;99.90
32348;DHT22;18821;44.800;10.326;2024-03-08T00:19:18;8.60;99.90
32348;DHT22;18821;44.800;10.326;2024-03-08T00:21:44;8.60;99.90
32348;DHT22;18821;44.800;10.326;2024-03-08T00:24:10;8.70;99.90
32348;DHT22;18821;44.800;10.326;2024-03-08T00:26:37;8.60;99.90
32348;DHT22;18821;44.800;10.326;2024-03-08T00:29:03;8.50;99.90
32348;DHT22;18821;44.800;10.326;2024-03-08T00:31:29;8.50;99.90
32348;DHT22;18821;44.800;10.326;2024-03-08T00:33:57;8.50;99.90
32348;DHT22;18821;44.800;10.326;2024-03-08T00:36:23;8.50;99.90
32348;DHT22;18821;44.800;10.326;2024-03-08T00:38:49;8.50;99.90
32348;DHT22;18821;44.800;10.326;2024-03-08T00:41:15;8.60;99.90
32348;DHT22;18821;44.800;10.326;2024-03-08T00:43:40;8.70;99.90
32348;DHT22;18821;44.800;10.326;2024-03-08T00:46:06;8.80;99.90
32348;DHT22;18821;44.800;10.326;2024-03-08T00:48:33;8.80;99.90
32348;DHT22;18821;44.800;10.326;2024-03-08T00:51:00;8.70;99.90
32348;DHT22;18821;44.800;10.326;2024-03-08T00:53:27;8.60;99.90
32348;DHT22;18821;44.800;10.326;2024-03-08T00:55:53;8.50;99.90
32348;DHT22;18821;44.800;10.326;2024-03-08T00:58:20;8.40;99.90
32348;DHT22;18821;44.800;10.326;2024-03-08T01:00:46;8.40;99.90
32348;DHT22;18821;44.800;10.326;2024-03-08T01:03:12;8.20;99.90
32348;DHT22;18821;44.800;10.326;2024-03-08T01:05:38;8.20;99.90
32348;DHT22;18821;44.800;10.326;2024-03-08T01:08:05;8.10;99.90
32348;DHT22;18821;44.800;10.326;2024-03-08T01:10:31;8.00;99.90
32348;DHT22;18821;44.800;10.326;2024-03-08T01:12:57;8.00;99.90
32348;DHT22;18821;44.800;10.326;2024-03-08T01:15:25;7.90;99.90
32348;DHT22;18821;44.800;10.326;2024-03-08T01:17:51;7.90;99.90
32348;DHT22;18821;44.800;10.326;2024-03-08T01:20:17;7.80;99.90
32348;DHT22;18821;44.800;10.326;2024-03-08T01:22:43;7.80;99.90
32348;DHT22;18821;44.800;10.326;2024-03-08T01:25:09;7.80;99.90
32348;DHT22;18821;44.800;10.326;2024-03-08T01:27:35;7.90;99.90
32348;DHT22;18821;44.800;10.326;2024-03-08T01:30:03;7.80;99.90
32348;DHT22;18821;44.800;10.326;2024-03-08T01:32:29;7.80;99.90
32348;DHT22;18821;44.800;10.326;2024-03-08T01:34:55;7.80;99.90
32348;DHT22;18821;44.800;10.326;2024-03-08T01:37:21;7.70;99.90
32348;DHT22;18821;44.800;10.326;2024-03-08T01:39:47;7.70;99.90
32348;DHT22;18821;44.800;10.326;2024-03-08T01:42:13;7.70;99.90
32348;DHT22;18821;44.800;10.326;2024-03-08T01:44:41;7.70;99.90
32348;DHT22;18821;44.800;10.326;2024-03-08T01:47:07;7.70;99.90
32348;DHT22;18821;44.800;10.326;2024-03-08T01:49:33;7.60;99.90
32348;DHT22;18821;44.800;10.326;2024-03-08T01:51:59;7.70;99.90
32348;DHT22;18821;44.800;10.326;2024-03-08T01:54:26;7.70;99.90
32348;DHT22;18821;44.800;10.326;2024-03-08T01:56:52;7.60;99.90
32348;DHT22;18821;44.800;10.326;2024-03-08T01:59:19;7.60;99.90
32348;DHT22;18821;44.800;10.326;2024-03-08T02:01:45;7.70;99.90
32348;DHT22;18821;44.800;10.326;2024-03-08T02:04:11;7.70;99.90
32348;DHT22;18821;44.800;10.326;2024-03-08T02:06:37;7.70;99.90
32348;DHT22;18821;44.800;10.326;2024-03-08T02:09:04;7.70;99.90
32348;DHT22;18821;44.800;10.326;2024-03-08T02:11:36;7.70;99.90
32348;DHT22;18821;44.800;10.326;2024-03-08T02:14:02;7.70;99.90
32348;DHT22;18821;44.800;10.326;2024-03-08T02:16:28;7.70;99.90
32348;DHT22;18821;44.800;10.326;2024-03-08T02:18:54;7.70;99.90
32348;DHT22;18821;44.800;10.326;2024-03-08T02:21:20;7.80;99.90
32348;DHT22;18821;44.800;10.326;2024-03-08T02:23:46;7.80;99.90
32348;DHT22;18821;44.800;10.326;2024-03-08T02:26:12;7.80;99.90
32348;DHT22;18821;44.800;10.326;2024-03-08T02:28:39;7.80;99.90
32348;DHT22;18821;44.800;10.326;2024-03-08T02:31:05;7.80;99.90
32348;DHT22;18821;44.800;10.326;2024-03-08T02:33:34;7.80;99.90
32348;DHT22;18821;44.800;10.326;2024-03-08T02:36:00;7.80;99.90
32348;DHT22;18821;44.800;10.326;2024-03-08T02:38:26;7.80;99.90
32348;DHT22;18821;44.800;10.326;2024-03-08T02:40:53;7.80;99.90
32348;DHT22;18821;44.800;10.326;2024-03-08T02:43:20;7.70;99.90
32348;DHT22;18821;44.800;10.326;2024-03-08T02:45:48;7.80;99.90
32348;DHT22;18821;44.800;10.326;2024-03-08T02:48:14;7.80;99.90
32348;DHT22;18821;44.800;10.326;2024-03-08T02:50:42;7.80;99.90
32348;DHT22;18821;44.800;10.326;2024-03-08T02:53:11;7.80;99.90
32348;DHT22;18821;44.800;10.326;2024-03-08T02:55:39;7.80;99.90
32348;DHT22;18821;44.800;10.326;2024-03-08T02:58:06;7.80;99.90
32348;DHT22;18821;44.800;10.326;2024-03-08T03:00:36;7.80;99.90
32348;DHT22;18821;44.800;10.326;2024-03-08T03:03:02;7.80;99.90
32348;DHT22;18821;44.800;10.326;2024-03-08T03:05:29;7.90;99.90
32348;DHT22;18821;44.800;10.326;2024-03-08T03:07:55;7.90;99.90
32348;DHT22;18821;44.800;10.326;2024-03-08T03:10:22;8.00;99.90
32348;DHT22;18821;44.800;10.326;2024-03-08T03:12:48;8.00;99.90
32348;DHT22;18821;44.800;10.326;2024-03-08T03:15:14;8.00;99.90
32348;DHT22;18821;44.800;10.326;2024-03-08T03:17:46;8.10;99.90
32348;DHT22;18821;44.800;10.326;2024-03-08T03:20:13;8.10;99.90
32348;DHT22;18821;44.800;10.326;2024-03-08T03:22:40;8.20;99.90
32348;DHT22;18821;44.800;10.326;2024-03-08T03:25:07;8.20;99.90
32348;DHT22;18821;44.800;10.326;2024-03-08T03:27:35;8.20;99.90
32348;DHT22;18821;44.800;10.326;2024-03-08T03:30:01;8.20;99.90
32348;DHT22;18821;44.800;10.326;2024-03-08T03:32:50;8.30;99.90
32348;DHT22;18821;44.800;10.326;2024-03-08T03:35:21;8.30;99.90
32348;DHT22;18821;44.800;10.326;2024-03-08T03:37:47;8.30;99.90
32348;DHT22;18821;44.800;10.326;2024-03-08T03:40:28;8.40;99.90
32348;DHT22;18821;44.800;10.326;2024-03-08T03:42:55;8.30;99.90
32348;DHT22;18821;44.800;10.326;2024-03-08T03:45:21;8.40;99.90
32348;DHT22;18821;44.800;10.326;2024-03-08T03:47:46;8.40;99.90
32348;DHT22;18821;44.800;10.326;2024-03-08T03:50:12;8.40;99.90
32348;DHT22;18821;44.800;10.326;2024-03-08T03:52:38;8.30;99.90
32348;DHT22;18821;44.800;10.326;2024-03-08T03:55:04;8.30;99.90
32348;DHT22;18821;44.800;10.326;2024-03-08T03:57:31;8.30;99.90
32348;DHT22;18821;44.800;10.326;2024-03-08T03:59:57;8.30;99.90
32348;DHT22;18821;44.800;10.326;2024-03-08T04:02:39;8.30;99.90
32348;DHT22;18821;44.800;10.326;2024-03-08T04:05:06;8.30;99.90
32348;DHT22;18821;44.800;10.326;2024-03-08T04:07:32;8.30;99.90
32348;DHT22;18821;44.800;10.326;2024-03-08T04:09:58;8.30;99.90
32348;DHT22;18821;44.800;10.326;2024-03-08T04:12:24;8.30;99.90
32348;DHT22;18821;44.800;10.326;2024-03-08T04:14:50;8.30;99.90
32348;DHT22;18821;44.800;10.326;2024-03-08T04:17:16;8.20;99.90
32348;DHT22;18821;44.800;10.326;2024-03-08T04:19:42;8.30;99.90
32348;DHT22;18821;44.800;10.326;2024-03-08T04:22:08;8.30;99.90
32348;DHT22;18821;44.800;10.326;2024-03-08T04:24:34;8.30;99.90
32348;DHT22;18821;44.800;10.326;2024-03-08T04:27:01;8.30;99.90
32348;DHT22;18821;44.800;10.326;2024-03-08T04:29:27;8.30;99.90
32348;DHT22;18821;44.800;10.326;2024-03-08T04:31:52;8.30;99.90
32348;DHT22;18821;44.800;10.326;2024-03-08T04:34:21;8.30;99.90
32348;DHT22;18821;44.800;10.326;2024-03-08T04:36:48;8.30;99.90
32348;DHT22;18821;44.800;10.326;2024-03-08T04:39:14;8.30;99.90
32348;DHT22;18821;44.800;10.326;2024-03-08T04:41:42;8.30;99.90
32348;DHT22;18821;44.800;10.326;2024-03-08T04:44:10;8.20;99.90
32348;DHT22;18821;44.800;10.326;2024-03-08T04:46:36;8.20;99.90
32348;DHT22;18821;44.800;10.326;2024-03-08T04:49:02;8.20;99.90
32348;DHT22;18821;44.800;10.326;2024-03-08T04:51:28;8.10;99.90
32348;DHT22;18821;44.800;10.326;2024-03-08T04:53:54;8.10;99.90
32348;DHT22;18821;44.800;10.326;2024-03-08T04:56:20;8.20;99.90
32348;DHT22;18821;44.800;10.326;2024-03-08T04:58:47;8.20;99.90
32348;DHT22;18821;44.800;10.326;2024-03-08T05:01:13;8.10;99.90
32348;DHT22;18821;44.800;10.326;2024-03-08T05:03:39;8.10;99.90
32348;DHT22;18821;44.800;10.326;2024-03-08T05:06:05;8.20;99.90
32348;DHT22;18821;44.800;10.326;2024-03-08T05:08:30;8.10;99.90
32348;DHT22;18821;44.800;10.326;2024-03-08T05:10:57;8.10;99.90
32348;DHT22;18821;44.800;10.326;2024-03-08T05:13:23;8.20;99.90
32348;DHT22;18821;44.800;10.326;2024-03-08T05:15:49;8.20;99.90
32348;DHT22;18821;44.800;10.326;2024-03-08T05:18:18;8.20;99.90
32348;DHT22;18821;44.800;10.326;2024-03-08T05:20:44;8.20;99.90
32348;DHT22;18821;44.800;10.326;2024-03-08T05:23:09;8.20;99.90
32348;DHT22;18821;44.800;10.326;2024-03-08T05:25:35;8.10;99.90
32348;DHT22;18821;44.800;10.326;2024-03-08T05:28:01;8.10;99.90
32348;DHT22;18821;44.800;10.326;2024-03-08T05:30:28;8.20;99.90
32348;DHT22;18821;44.800;10.326;2024-03-08T05:32:54;8.20;99.90
32348;DHT22;18821;44.800;10.326;2024-03-08T05:35:20;8.20;99.90
32348;DHT22;18821;44.800;10.326;2024-03-08T05:37:46;8.10;99.90
32348;DHT22;18821;44.800;10.326;2024-03-08T05:40:12;8.10;99.90
32348;DHT22;18821;44.800;10.326;2024-03-08T05:42:38;8.10;99.90
32348;DHT22;18821;44.800;10.326;2024-03-08T05:45:05;8.10;99.90
32348;DHT22;18821;44.800;10.326;2024-03-08T05:47:35;8.10;99.90
32348;DHT22;18821;44.800;10.326;2024-03-08T05:50:01;8.00;99.90
32348;DHT22;18821;44.800;10.326;2024-03-08T05:52:27;8.10;99.90
32348;DHT22;18821;44.800;10.326;2024-03-08T05:54:53;8.10;99.90
32348;DHT22;18821;44.800;10.326;2024-03-08T05:57:19;8.10;99.90
32348;DHT22;18821;44.800;10.326;2024-03-08T05:59:45;8.20;99.90
32348;DHT22;18821;44.800;10.326;2024-03-08T06:02:12;8.20;99.90
32348;DHT22;18821;44.800;10.326;2024-03-08T06:04:42;8.20;99.90
32348;DHT22;18821;44.800;10.326;2024-03-08T06:07:08;8.20;99.90
32348;DHT22;18821;44.800;10.326;2024-03-08T06:09:38;8.20;99.90
32348;DHT22;18821;44.800;10.326;2024-03-08T06:12:04;8.30;99.90
32348;DHT22;18821;44.800;10.326;2024-03-08T06:14:32;8.30;99.90
32348;DHT22;18821;44.800;10.326;2024-03-08T06:16:58;8.30;99.90
32348;DHT22;18821;44.800;10.326;2024-03-08T06:19:24;8.20;99.90
32348;DHT22;18821;44.800;10.326;2024-03-08T06:21:49;8.30;99.90
32348;DHT22;18821;44.800;10.326;2024-03-08T06:24:15;8.30;99.90
32348;DHT22;18821;44.800;10.326;2024-03-08T06:26:41;8.30;99.90
32348;DHT22;18821;44.800;10.326;2024-03-08T06:29:08;8.30;99.90
32348;DHT22;18821;44.800;10.326;2024-03-08T06:31:34;8.30;99.90
32348;DHT22;18821;44.800;10.326;2024-03-08T06:34:00;8.30;99.90
32348;DHT22;18821;44.800;10.326;2024-03-08T06:36:26;8.30;99.90
32348;DHT22;18821;44.800;10.326;2024-03-08T06:38:52;8.30;99.90
32348;DHT22;18821;44.800;10.326;2024-03-08T06:41:18;8.40;99.90
32348;DHT22;18821;44.800;10.326;2024-03-08T06:43:45;8.40;99.90
32348;DHT22;18821;44.800;10.326;2024-03-08T06:46:12;8.50;99.90
32348;DHT22;18821;44.800;10.326;2024-03-08T06:48:39;8.50;99.90
32348;DHT22;18821;44.800;10.326;2024-03-08T06:51:05;8.50;99.90
32348;DHT22;18821;44.800;10.326;2024-03-08T06:53:31;8.60;99.90
32348;DHT22;18821;44.800;10.326;2024-03-08T06:55:58;8.70;99.90
32348;DHT22;18821;44.800;10.326;2024-03-08T06:58:24;8.80;99.90
32348;DHT22;18821;44.800;10.326;2024-03-08T07:00:50;8.80;99.90
32348;DHT22;18821;44.800;10.326;2024-03-08T07:03:19;8.80;99.90
32348;DHT22;18821;44.800;10.326;2024-03-08T07:05:46;8.90;99.90
32348;DHT22;18821;44.800;10.326;2024-03-08T07:08:11;8.90;99.90
32348;DHT22;18821;44.800;10.326;2024-03-08T07:10:40;9.00;99.90
32348;DHT22;18821;44.800;10.326;2024-03-08T07:13:07;8.90;99.90
32348;DHT22;18821;44.800;10.326;2024-03-08T07:15:34;8.90;99.90
32348;DHT22;18821;44.800;10.326;2024-03-08T07:18:01;9.00;99.90
32348;DHT22;18821;44.800;10.326;2024-03-08T07:20:28;9.00;99.90
32348;DHT22;18821;44.800;10.326;2024-03-08T07:22:54;9.10;99.90
32348;DHT22;18821;44.800;10.326;2024-03-08T07:25:20;9.10;99.90
32348;DHT22;18821;44.800;10.326;2024-03-08T07:27:51;9.20;99.90
32348;DHT22;18821;44.800;10.326;2024-03-08T07:30:17;9.30;99.90
32348;DHT22;18821;44.800;10.326;2024-03-08T07:33:02;9.40;99.90
32348;DHT22;18821;44.800;10.326;2024-03-08T07:35:29;9.40;99.90
32348;DHT22;18821;44.800;10.326;2024-03-08T07:37:55;9.40;99.90
32348;DHT22;18821;44.800;10.326;2024-03-08T07:40:21;9.50;99.90
32348;DHT22;18821;44.800;10.326;2024-03-08T07:42:47;9.40;99.90
32348;DHT22;18821;44.800;10.326;2024-03-08T07:45:13;9.40;99.90
32348;DHT22;18821;44.800;10.326;2024-03-08T07:47:39;9.50;99.90
32348;DHT22;18821;44.800;10.326;2024-03-08T07:50:06;9.40;99.90
32348;DHT22;18821;44.800;10.326;2024-03-08T07:52:34;9.40;99.90
32348;DHT22;18821;44.800;10.326;2024-03-08T07:55:04;9.40;99.90
32348;DHT22;18821;44.800;10.326;2024-03-08T07:57:32;9.40;99.90
32348;DHT22;18821;44.800;10.326;2024-03-08T07:59:58;9.50;99.90
32348;DHT22;18821;44.800;10.326;2024-03-08T08:02:24;9.60;99.90
32348;DHT22;18821;44.800;10.326;2024-03-08T08:04:50;9.50;99.90
32348;DHT22;18821;44.800;10.326;2024-03-08T08:07:16;9.50;99.90
32348;DHT22;18821;44.800;10.326;2024-03-08T08:09:42;9.30;99.90
32348;DHT22;18821;44.800;10.326;2024-03-08T08:12:09;9.40;99.90
32348;DHT22;18821;44.800;10.326;2024-03-08T08:14:38;9.40;99.90
32348;DHT22;18821;44.800;10.326;2024-03-08T08:17:05;9.50;99.90
32348;DHT22;18821;44.800;10.326;2024-03-08T08:19:31;9.60;99.90
32348;DHT22;18821;44.800;10.326;2024-03-08T08:21:57;9.60;99.90
32348;DHT22;18821;44.800;10.326;2024-03-08T08:24:23;9.60;99.90
32348;DHT22;18821;44.800;10.326;2024-03-08T08:26:50;9.60;99.90
32348;DHT22;18821;44.800;10.326;2024-03-08T08:29:16;9.60;99.90
32348;DHT22;18821;44.800;10.326;2024-03-08T08:31:42;9.60;99.90
32348;DHT22;18821;44.800;10.326;2024-03-08T08:34:11;9.70;99.90
32348;DHT22;18821;44.800;10.326;2024-03-08T08:36:37;9.70;99.90
32348;DHT22;18821;44.800;10.326;2024-03-08T08:39:05;9.70;99.90
32348;DHT22;18821;44.800;10.326;2024-03-08T08:41:37;9.70;99.90
32348;DHT22;18821;44.800;10.326;2024-03-08T08:44:03;9.60;99.90
32348;DHT22;18821;44.800;10.326;2024-03-08T08:46:29;9.70;99.90
32348;DHT22;18821;44.800;10.326;2024-03-08T08:48:55;9.80;99.90
32348;DHT22;18821;44.800;10.326;2024-03-08T08:51:21;9.90;99.90
32348;DHT22;18821;44.800;10.326;2024-03-08T08:53:48;9.90;99.90
32348;DHT22;18821;44.800;10.326;2024-03-08T08:56:14;9.80;99.90
32348;DHT22;18821;44.800;10.326;2024-03-08T08:58:42;9.80;99.90
32348;DHT22;18821;44.800;10.326;2024-03-08T09:01:11;9.90;99.90
32348;DHT22;18821;44.800;10.326;2024-03-08T09:03:37;10.10;99.90
32348;DHT22;18821;44.800;10.326;2024-03-08T09:06:07;10.10;99.90
32348;DHT22;18821;44.800;10.326;2024-03-08T09:08:36;10.10;99.90
32348;DHT22;18821;44.800;10.326;2024-03-08T09:11:03;10.10;99.90
32348;DHT22;18821;44.800;10.326;2024-03-08T09:13:31;10.20;99.90
32348;DHT22;18821;44.800;10.326;2024-03-08T09:15:57;10.20;99.90
32348;DHT22;18821;44.800;10.326;2024-03-08T09:18:23;10.20;99.90
32348;DHT22;18821;44.800;10.326;2024-03-08T09:20:50;10.30;99.90
32348;DHT22;18821;44.800;10.326;2024-03-08T09:23:19;10.40;99.90
32348;DHT22;18821;44.800;10.326;2024-03-08T09:25:45;10.50;99.90
32348;DHT22;18821;44.800;10.326;2024-03-08T09:28:12;10.50;99.90
32348;DHT22;18821;44.800;10.326;2024-03-08T09:30:39;10.60;99.90
32348;DHT22;18821;44.800;10.326;2024-03-08T09:33:05;10.50;99.90
32348;DHT22;18821;44.800;10.326;2024-03-08T09:35:32;10.50;99.90
32348;DHT22;18821;44.800;10.326;2024-03-08T09:37:58;10.50;99.90
32348;DHT22;18821;44.800;10.326;2024-03-08T09:40:24;10.40;99.90
32348;DHT22;18821;44.800;10.326;2024-03-08T09:42:51;10.40;99.90
32348;DHT22;18821;44.800;10.326;2024-03-08T09:45:20;10.40;99.90
32348;DHT22;18821;44.800;10.326;2024-03-08T09:47:54;10.40;99.90
32348;DHT22;18821;44.800;10.326;2024-03-08T09:50:20;10.20;99.90
32348;DHT22;18821;44.800;10.326;2024-03-08T09:52:48;10.00;99.90
32348;DHT22;18821;44.800;10.326;2024-03-08T09:55:16;10.00;99.90
32348;DHT22;18821;44.800;10.326;2024-03-08T09:57:44;10.00;99.90
32348;DHT22;18821;44.800;10.326;2024-03-08T10:00:33;9.90;99.90
32348;DHT22;18821;44.800;10.326;2024-03-08T10:03:02;9.90;99.90
32348;DHT22;18821;44.800;10.326;2024-03-08T10:05:30;10.10;99.90
32348;DHT22;18821;44.800;10.326;2024-03-08T10:07:58;10.40;99.90
32348;DHT22;18821;44.800;10.326;2024-03-08T10:10:24;10.50;99.90
32348;DHT22;18821;44.800;10.326;2024-03-08T10:12:50;10.40;99.90
32348;DHT22;18821;44.800;10.326;2024-03-08T10:15:20;10.50;99.90
32348;DHT22;18821;44.800;10.326;2024-03-08T10:17:46;10.60;99.90
32348;DHT22;18821;44.800;10.326;2024-03-08T10:20:16;10.60;99.90
32348;DHT22;18821;44.800;10.326;2024-03-08T10:22:42;10.50;99.90
32348;DHT22;18821;44.800;10.326;2024-03-08T10:25:13;10.40;99.90
32348;DHT22;18821;44.800;10.326;2024-03-08T10:27:42;10.40;99.90
32348;DHT22;18821;44.800;10.326;2024-03-08T10:30:15;10.30;99.90
32348;DHT22;18821;44.800;10.326;2024-03-08T10:32:52;10.30;99.90
32348;DHT22;18821;44.800;10.326;2024-03-08T10:35:18;10.30;99.90
32348;DHT22;18821;44.800;10.326;2024-03-08T10:37:50;10.30;99.90
32348;DHT22;18821;44.800;10.326;2024-03-08T10:40:25;10.10;99.90
32348;DHT22;18821;44.800;10.326;2024-03-08T10:42:58;10.10;99.90
32348;DHT22;18821;44.800;10.326;2024-03-08T10:45:38;10.20;99.90
32348;DHT22;18821;44.800;10.326;2024-03-08T10:50:59;10.20;99.90
32348;DHT22;18821;44.800;10.326;2024-03-08T10:53:30;10.50;99.90
32348;DHT22;18821;44.800;10.326;2024-03-08T10:55:57;10.60;99.90
32348;DHT22;18821;44.800;10.326;2024-03-08T10:58:27;10.60;99.90
32348;DHT22;18821;44.800;10.326;2024-03-08T11:00:54;10.70;99.90
32348;DHT22;18821;44.800;10.326;2024-03-08T11:06:52;10.70;99.90
32348;DHT22;18821;44.800;10.326;2024-03-08T11:08:54;10.60;99.90
32348;DHT22;18821;44.800;10.326;2024-03-08T11:11:25;10.70;99.90
32348;DHT22;18821;44.800;10.326;2024-03-08T11:13:58;10.60;99.90
32348;DHT22;18821;44.800;10.326;2024-03-08T11:18:54;10.60;99.90
32348;DHT22;18821;44.800;10.326;2024-03-08T11:21:20;10.60;99.90
32348;DHT22;18821;44.800;10.326;2024-03-08T11:24:00;10.50;99.90
32348;DHT22;18821;44.800;10.326;2024-03-08T11:26:29;10.50;99.90
32348;DHT22;18821;44.800;10.326;2024-03-08T11:34:45;10.50;99.90
32348;DHT22;18821;44.800;10.326;2024-03-08T11:37:15;10.40;99.90
32348;DHT22;18821;44.800;10.326;2024-03-08T11:39:50;10.40;99.90
32348;DHT22;18821;44.800;10.326;2024-03-08T11:42:20;10.50;99.90
32348;DHT22;18821;44.800;10.326;2024-03-08T11:44:47;10.50;99.90
32348;DHT22;18821;44.800;10.326;2024-03-08T11:47:14;10.40;99.90
32348;DHT22;18821;44.800;10.326;2024-03-08T11:49:40;10.40;99.90
32348;DHT22;18821;44.800;10.326;2024-03-08T11:52:18;10.40;99.90
32348;DHT22;18821;44.800;10.326;2024-03-08T11:54:54;10.50;99.90
32348;DHT22;18821;44.800;10.326;2024-03-08T11:57:23;10.50;99.90
32348;DHT22;18821;44.800;10.326;2024-03-08T11:59:51;10.60;99.90
32348;DHT22;18821;44.800;10.326;2024-03-08T12:02:17;10.50;99.90
32348;DHT22;18821;44.800;10.326;2024-03-08T12:04:45;10.50;99.90
32348;DHT22;18821;44.800;10.326;2024-03-08T12:07:13;10.60;99.90
32348;DHT22;18821;44.800;10.326;2024-03-08T12:09:40;10.60;99.90
32348;DHT22;18821;44.800;10.326;2024-03-08T12:12:12;10.60;99.90
32348;DHT22;18821;44.800;10.326;2024-03-08T12:14:39;10.50;99.90
32348;DHT22;18821;44.800;10.326;2024-03-08T12:17:08;10.50;99.90
32348;DHT22;18821;44.800;10.326;2024-03-08T12:19:36;10.30;99.90
32348;DHT22;18821;44.800;10.326;2024-03-08T12:22:08;10.40;99.90
32348;DHT22;18821;44.800;10.326;2024-03-08T12:24:36;10.30;99.90
32348;DHT22;18821;44.800;10.326;2024-03-08T12:27:20;10.30;99.90
32348;DHT22;18821;44.800;10.326;2024-03-08T12:29:46;10.20;99.90
32348;DHT22;18821;44.800;10.326;2024-03-08T12:32:12;10.20;99.90
32348;DHT22;18821;44.800;10.326;2024-03-08T12:34:40;10.20;99.90
32348;DHT22;18821;44.800;10.326;2024-03-08T12:37:06;10.30;99.90
32348;DHT22;18821;44.800;10.326;2024-03-08T12:39:32;10.40;99.90
32348;DHT22;18821;44.800;10.326;2024-03-08T12:42:00;10.40;99.90
32348;DHT22;18821;44.800;10.326;2024-03-08T12:44:26;10.40;99.90
32348;DHT22;18821;44.800;10.326;2024-03-08T12:46:54;10.30;99.90
32348;DHT22;18821;44.800;10.326;2024-03-08T12:49:20;10.20;99.90
32348;DHT22;18821;44.800;10.326;2024-03-08T12:51:49;10.30;99.90
32348;DHT22;18821;44.800;10.326;2024-03-08T12:54:15;10.20;99.90
32348;DHT22;18821;44.800;10.326;2024-03-08T12:56:44;10.30;99.90
32348;DHT22;18821;44.800;10.326;2024-03-08T12:59:10;10.20;99.90
32348;DHT22;18821;44.800;10.326;2024-03-08T13:01:36;10.30;99.90
32348;DHT22;18821;44.800;10.326;2024-03-08T13:04:04;10.40;99.90
32348;DHT22;18821;44.800;10.326;2024-03-08T13:06:32;10.50;99.90
32348;DHT22;18821;44.800;10.326;2024-03-08T13:08:58;10.60;99.90
32348;DHT22;18821;44.800;10.326;2024-03-08T13:11:26;10.60;99.90
32348;DHT22;18821;44.800;10.326;2024-03-08T13:13:53;10.60;99.90
32348;DHT22;18821;44.800;10.326;2024-03-08T13:16:19;10.50;99.90
32348;DHT22;18821;44.800;10.326;2024-03-08T13:18:46;10.70;99.90
32348;DHT22;18821;44.800;10.326;2024-03-08T13:21:15;10.60;99.90
32348;DHT22;18821;44.800;10.326;2024-03-08T13:23:44;10.70;99.90
32348;DHT22;18821;44.800;10.326;2024-03-08T13:26:15;10.90;99.90
32348;DHT22;18821;44.800;10.326;2024-03-08T13:28:48;10.90;99.90
32348;DHT22;18821;44.800;10.326;2024-03-08T13:31:20;10.90;99.90
32348;DHT22;18821;44.800;10.326;2024-03-08T13:33:46;10.80;99.90
32348;DHT22;18821;44.800;10.326;2024-03-08T13:36:13;10.90;99.90
32348;DHT22;18821;44.800;10.326;2024-03-08T13:38:47;11.00;99.90
32348;DHT22;18821;44.800;10.326;2024-03-08T13:41:16;11.00;99.90
32348;DHT22;18821;44.800;10.326;2024-03-08T13:43:47;11.00;99.90
32348;DHT22;18821;44.800;10.326;2024-03-08T13:46:16;10.90;99.90
32348;DHT22;18821;44.800;10.326;2024-03-08T13:48:42;10.80;99.90
32348;DHT22;18821;44.800;10.326;2024-03-08T13:51:09;10.70;99.90
32348;DHT22;18821;44.800;10.326;2024-03-08T13:53:41;10.70;99.90
32348;DHT22;18821;44.800;10.326;2024-03-08T13:56:09;10.60;99.90
32348;DHT22;18821;44.800;10.326;2024-03-08T13:58:36;10.60;99.90
32348;DHT22;18821;44.800;10.326;2024-03-08T14:01:02;10.60;99.90
32348;DHT22;18821;44.800;10.326;2024-03-08T14:03:31;10.60;99.90
32348;DHT22;18821;44.800;10.326;2024-03-08T14:05:58;10.60;99.90
32348;DHT22;18821;44.800;10.326;2024-03-08T14:08:25;10.50;99.90
32348;DHT22;18821;44.800;10.326;2024-03-08T14:10:53;10.40;99.90
32348;DHT22;18821;44.800;10.326;2024-03-08T14:13:20;10.40;99.90
32348;DHT22;18821;44.800;10.326;2024-03-08T14:15:46;10.30;99.90
32348;DHT22;18821;44.800;10.326;2024-03-08T14:18:14;10.30;99.90
32348;DHT22;18821;44.800;10.326;2024-03-08T14:20:41;10.40;99.90
32348;DHT22;18821;44.800;10.326;2024-03-08T14:23:07;10.30;99.90
32348;DHT22;18821;44.800;10.326;2024-03-08T14:25:34;10.40;99.90
32348;DHT22;18821;44.800;10.326;2024-03-08T14:28:00;10.30;99.90
32348;DHT22;18821;44.800;10.326;2024-03-08T14:30:29;10.30;99.90
32348;DHT22;18821;44.800;10.326;2024-03-08T14:33:01;10.30;99.90
32348;DHT22;18821;44.800;10.326;2024-03-08T14:35:27;10.30;99.90
32348;DHT22;18821;44.800;10.326;2024-03-08T14:37:56;10.20;99.90
32348;DHT22;18821;44.800;10.326;2024-03-08T14:40:26;10.30;99.90
32348;DHT22;18821;44.800;10.326;2024-03-08T14:42:52;10.20;99.90
32348;DHT22;18821;44.800;10.326;2024-03-08T14:45:21;10.20;99.90
32348;DHT22;18821;44.800;10.326;2024-03-08T14:47:47;10.20;99.90
32348;DHT22;18821;44.800;10.326;2024-03-08T14:50:20;10.20;99.90
32348;DHT22;18821;44.800;10.326;2024-03-08T14:52:46;10.10;99.90
32348;DHT22;18821;44.800;10.326;2024-03-08T14:55:20;10.20;99.90
32348;DHT22;18821;44.800;10.326;2024-03-08T14:57:51;10.10;99.90
32348;DHT22;18821;44.800;10.326;2024-03-08T15:00:19;10.20;99.90
32348;DHT22;18821;44.800;10.326;2024-03-08T15:03:01;10.20;99.90
32348;DHT22;18821;44.800;10.326;2024-03-08T15:05:36;10.20;99.90
32348;DHT22;18821;44.800;10.326;2024-03-08T15:08:08;10.20;99.90
32348;DHT22;18821;44.800;10.326;2024-03-08T15:10:39;10.20;99.90
32348;DHT22;18821;44.800;10.326;2024-03-08T15:13:10;10.20;99.90
32348;DHT22;18821;44.800;10.326;2024-03-08T15:15:49;10.10;99.90
32348;DHT22;18821;44.800;10.326;2024-03-08T15:18:22;10.20;99.90
32348;DHT22;18821;44.800;10.326;2024-03-08T15:20:52;10.20;99.90
32348;DHT22;18821;44.800;10.326;2024-03-08T15:23:19;10.20;99.90
32348;DHT22;18821;44.800;10.326;2024-03-08T15:25:47;10.20;99.90
32348;DHT22;18821;44.800;10.326;2024-03-08T15:28:15;10.20;99.90
32348;DHT22;18821;44.800;10.326;2024-03-08T15:30:45;10.10;99.90
32348;DHT22;18821;44.800;10.326;2024-03-08T15:33:15;10.00;99.90
32348;DHT22;18821;44.800;10.326;2024-03-08T15:35:50;10.00;99.90
32348;DHT22;18821;44.800;10.326;2024-03-08T15:38:26;9.90;99.90
32348;DHT22;18821;44.800;10.326;2024-03-08T15:40:55;10.00;99.90
32348;DHT22;18821;44.800;10.326;2024-03-08T15:43:22;10.00;99.90